Time;durP1;ratioP1;P1;durP2;ratioP2;P2;SDS_P1;SDS_P2;PMS_P1;PMS_P2;Temp;Humidity;BMP_temperature;BMP_pressure;BME280_temperature;BME280_humidity;BME280_pressure;Samples;Min_cycle;Max_cycle;Signal;HPM_P1;HPM_P2
2024/02/27 00:00:06;;;;;;;2.10;1.90;;;9.60;99.90;;;;;;5050801;28;20185;-73
2024/02/27 00:02:32;;;;;;;1.90;1.80;;;9.60;99.90;;;;;;5053516;28;20180;-73
2024/02/27 00:04:57;;;;;;;2.53;2.27;;;9.60;99.90;;;;;;5047857;28;20441;-74
2024/02/27 00:07:25;;;;;;;1.93;1.77;;;9.60;99.90;;;;;;5046557;28;20181;-74
2024/02/27 00:09:51;;;;;;;1.97;1.87;;;9.60;99.90;;;;;;5052780;28;20649;-74
2024/02/27 00:12:17;;;;;;;2.60;2.03;;;9.60;99.90;;;;;;5053094;28;20909;-74
2024/02/27 00:14:42;;;;;;;2.03;1.90;;;9.60;99.90;;;;;;5052692;28;20415;-74
2024/02/27 00:17:08;;;;;;;1.90;1.80;;;9.60;99.90;;;;;;5051987;28;20248;-74
2024/02/27 00:19:34;;;;;;;1.53;1.43;;;9.60;99.90;;;;;;5052657;28;20661;-74
2024/02/27 00:21:59;;;;;;;2.90;1.70;;;9.50;99.90;;;;;;5052513;28;20230;-74
2024/02/27 00:24:25;;;;;;;2.13;1.90;;;9.50;99.90;;;;;;5052592;28;20655;-74
2024/02/27 00:26:50;;;;;;;1.83;1.53;;;9.60;99.90;;;;;;5051790;28;20169;-74
2024/02/27 00:29:18;;;;;;;1.57;1.47;;;9.60;99.90;;;;;;5052410;28;20674;-74
2024/02/27 00:31:44;;;;;;;1.87;1.77;;;9.60;99.90;;;;;;5052448;28;20182;-74
2024/02/27 00:34:09;;;;;;;2.63;1.50;;;9.60;99.90;;;;;;5052470;28;20509;-74
2024/02/27 00:36:35;;;;;;;2.23;2.10;;;9.60;99.90;;;;;;5051627;28;20597;-74
2024/02/27 00:39:00;;;;;;;2.37;1.80;;;9.60;99.90;;;;;;5052279;28;20194;-74
2024/02/27 00:41:26;;;;;;;2.60;1.70;;;9.60;99.90;;;;;;5052298;28;20177;-73
2024/02/27 00:43:51;;;;;;;2.97;1.63;;;9.60;99.90;;;;;;5052225;28;20169;-74
2024/02/27 00:46:17;;;;;;;2.60;1.57;;;9.50;99.90;;;;;;5051926;28;20200;-74
2024/02/27 00:48:42;;;;;;;1.77;1.67;;;9.40;99.90;;;;;;5051699;28;20198;-74
2024/02/27 00:51:08;;;;;;;1.53;1.43;;;9.30;99.90;;;;;;5051971;28;20264;-74
2024/02/27 00:53:33;;;;;;;1.50;1.40;;;9.40;99.90;;;;;;5051694;28;20176;-74
2024/02/27 00:55:59;;;;;;;3.03;2.13;;;9.30;99.90;;;;;;5051802;28;20162;-74
2024/02/27 00:58:26;;;;;;;2.30;1.50;;;9.30;99.90;;;;;;5051152;28;20208;-74
2024/02/27 01:00:51;;;;;;;2.33;1.90;;;9.30;99.90;;;;;;5051927;28;20185;-74
2024/02/27 01:03:17;;;;;;;1.13;1.03;;;9.30;99.90;;;;;;5052065;28;20423;-74
2024/02/27 01:05:42;;;;;;;2.77;1.90;;;9.30;99.90;;;;;;5051915;28;20174;-74
2024/02/27 01:08:08;;;;;;;1.43;1.33;;;9.30;99.90;;;;;;5051265;28;20580;-74
2024/02/27 01:10:33;;;;;;;3.27;1.47;;;9.30;99.90;;;;;;5051851;28;20206;-73
2024/02/27 01:12:59;;;;;;;1.50;1.40;;;9.30;99.90;;;;;;5051979;28;20172;-74
2024/02/27 01:15:24;;;;;;;1.97;1.77;;;9.30;99.90;;;;;;5051820;28;20173;-74
2024/02/27 01:17:50;;;;;;;3.43;2.00;;;9.20;99.90;;;;;;5051043;28;20675;-74
2024/02/27 01:20:16;;;;;;;2.40;1.77;;;9.30;99.90;;;;;;5051787;28;20642;-74
2024/02/27 01:22:41;;;;;;;1.63;1.53;;;9.30;99.90;;;;;;5051910;28;20174;-74
2024/02/27 01:25:08;;;;;;;3.63;1.33;;;9.30;99.90;;;;;;5051836;28;20223;-74
2024/02/27 01:27:34;;;;;;;2.10;1.80;;;9.30;99.90;;;;;;5051036;28;20161;-73
2024/02/27 01:29:59;;;;;;;1.67;1.57;;;9.30;99.90;;;;;;5051584;28;20454;-74
2024/02/27 01:32:25;;;;;;;4.70;1.60;;;9.30;99.90;;;;;;5051754;28;20170;-74
2024/02/27 01:34:50;;;;;;;2.07;1.33;;;9.30;99.90;;;;;;5051734;28;20166;-74
2024/02/27 01:37:16;;;;;;;1.67;1.57;;;9.30;99.90;;;;;;5050982;28;20564;-74
2024/02/27 01:39:42;;;;;;;1.30;1.20;;;9.30;99.90;;;;;;5051678;28;20228;-74
2024/02/27 01:42:08;;;;;;;1.77;1.67;;;9.20;99.90;;;;;;5051714;28;20452;-74
2024/02/27 01:44:33;;;;;;;1.33;1.10;;;9.20;99.90;;;;;;5051741;28;20588;-74
2024/02/27 01:47:00;;;;;;;2.63;1.20;;;9.10;99.90;;;;;;5050967;28;20174;-73
2024/02/27 01:49:27;;;;;;;2.20;1.50;;;9.10;99.90;;;;;;5051487;28;20205;-73
2024/02/27 01:51:54;;;;;;;2.10;2.00;;;9.10;99.90;;;;;;5051587;28;20420;-73
2024/02/27 01:54:24;;;;;;;1.63;1.53;;;9.10;99.90;;;;;;5051625;28;20841;-73
2024/02/27 01:56:51;;;;;;;1.97;1.50;;;9.00;99.90;;;;;;5050790;28;20419;-74
2024/02/27 01:59:20;;;;;;;1.63;1.53;;;9.00;99.90;;;;;;5051384;28;20472;-74
2024/02/27 02:01:48;;;;;;;2.20;1.90;;;8.90;99.90;;;;;;5051493;28;20779;-73
2024/02/27 02:04:15;;;;;;;1.60;1.50;;;9.00;99.90;;;;;;5051485;28;20423;-74
2024/02/27 02:06:41;;;;;;;2.03;1.83;;;8.90;99.90;;;;;;5053445;28;20764;-73
2024/02/27 02:09:07;;;;;;;3.20;1.83;;;8.90;99.90;;;;;;5054734;28;20924;-73
2024/02/27 02:11:32;;;;;;;2.40;2.20;;;8.90;99.90;;;;;;5055159;28;20423;-74
2024/02/27 02:13:58;;;;;;;1.90;1.80;;;8.80;99.90;;;;;;5055011;28;20185;-74
2024/02/27 02:16:23;;;;;;;2.63;2.30;;;8.80;99.90;;;;;;5054521;28;20253;-74
2024/02/27 02:18:49;;;;;;;2.50;2.30;;;8.80;99.90;;;;;;5054509;28;20199;-73
2024/02/27 02:21:14;;;;;;;2.47;2.27;;;8.70;99.90;;;;;;5054795;28;20696;-73
2024/02/27 02:23:43;;;;;;;3.37;2.60;;;8.70;99.90;;;;;;5054885;28;20178;-74
2024/02/27 02:26:08;;;;;;;2.47;2.20;;;8.70;99.90;;;;;;5054757;28;20166;-73
2024/02/27 02:28:34;;;;;;;4.93;3.10;;;8.70;99.90;;;;;;5053987;28;20442;-73
2024/02/27 02:30:59;;;;;;;2.10;1.93;;;8.70;99.90;;;;;;5054638;28;20254;-73
2024/02/27 02:33:27;;;;;;;2.70;2.40;;;8.80;99.90;;;;;;5054680;28;20181;-74
2024/02/27 02:35:53;;;;;;;3.73;3.10;;;8.70;99.90;;;;;;5054731;28;20176;-74
2024/02/27 02:38:18;;;;;;;3.90;3.40;;;8.70;99.90;;;;;;5053843;28;20804;-73
2024/02/27 02:40:44;;;;;;;4.63;4.23;;;8.70;99.90;;;;;;5054530;28;20173;-73
2024/02/27 02:43:09;;;;;;;7.50;4.20;;;8.60;99.90;;;;;;5053240;28;20197;-74
2024/02/27 02:45:35;;;;;;;4.70;4.10;;;8.60;99.90;;;;;;5054408;28;20230;-73
2024/02/27 02:48:00;;;;;;;4.63;4.10;;;8.60;99.90;;;;;;5053597;28;20193;-73
2024/02/27 02:50:29;;;;;;;4.33;3.93;;;8.50;99.90;;;;;;5054261;28;20239;-73
2024/02/27 02:52:55;;;;;;;4.83;4.30;;;8.60;99.90;;;;;;5054361;28;20215;-74
2024/02/27 02:55:21;;;;;;;4.17;3.80;;;8.50;99.90;;;;;;5054281;28;20917;-74
2024/02/27 02:57:46;;;;;;;4.57;4.13;;;8.50;99.90;;;;;;5053254;28;20495;-74
2024/02/27 03:00:12;;;;;;;5.33;4.87;;;8.60;99.90;;;;;;5054219;28;20178;-74
2024/02/27 03:02:38;;;;;;;6.33;5.00;;;8.50;99.90;;;;;;5054179;28;20216;-74
2024/02/27 03:05:05;;;;;;;6.70;5.00;;;8.60;99.90;;;;;;5054236;28;20677;-74
2024/02/27 03:07:30;;;;;;;5.60;5.10;;;8.60;99.90;;;;;;5053504;28;20177;-74
2024/02/27 03:09:56;;;;;;;6.37;4.97;;;8.60;99.90;;;;;;5054045;28;20520;-73
2024/02/27 03:12:23;;;;;;;5.53;5.00;;;8.60;99.90;;;;;;5054106;28;20161;-73
2024/02/27 03:14:48;;;;;;;6.40;5.13;;;8.60;99.90;;;;;;5054013;28;20165;-73
2024/02/27 03:17:15;;;;;;;4.83;4.43;;;8.70;99.90;;;;;;5052457;28;20997;-74
2024/02/27 03:19:41;;;;;;;6.40;5.40;;;8.70;99.90;;;;;;5053811;28;20565;-73
2024/02/27 03:22:08;;;;;;;6.13;5.50;;;8.70;99.90;;;;;;5053766;28;20416;-74
2024/02/27 03:24:33;;;;;;;6.73;6.03;;;8.60;99.90;;;;;;5053768;28;20506;-74
2024/02/27 03:26:59;;;;;;;7.20;5.47;;;8.60;99.90;;;;;;5053034;28;20459;-73
2024/02/27 03:29:25;;;;;;;9.07;6.90;;;8.50;99.90;;;;;;5053474;28;20272;-74
2024/02/27 03:31:51;;;;;;;9.63;6.40;;;8.50;99.90;;;;;;5053548;28;20439;-74
2024/02/27 03:34:16;;;;;;;6.80;6.10;;;8.50;99.90;;;;;;5053689;28;20181;-74
2024/02/27 03:36:42;;;;;;;6.90;6.23;;;8.40;99.90;;;;;;5053165;28;20540;-74
2024/02/27 03:39:07;;;;;;;8.10;6.33;;;8.50;99.90;;;;;;5053267;28;20236;-74
2024/02/27 03:41:32;;;;;;;6.63;6.03;;;8.50;99.90;;;;;;5053452;28;20170;-73
2024/02/27 03:43:58;;;;;;;7.83;6.77;;;8.60;99.90;;;;;;5053320;28;20538;-74
2024/02/27 03:46:23;;;;;;;7.17;6.47;;;8.60;99.90;;;;;;5052868;28;20201;-73
2024/02/27 03:48:49;;;;;;;6.70;5.97;;;8.60;99.90;;;;;;5052983;28;20198;-73
2024/02/27 03:51:14;;;;;;;7.30;6.37;;;8.50;99.90;;;;;;5053213;28;20232;-73
2024/02/27 03:53:40;;;;;;;7.50;6.47;;;8.50;99.90;;;;;;5053091;28;20178;-74
2024/02/27 03:56:06;;;;;;;7.67;6.87;;;8.50;99.90;;;;;;5053177;28;20177;-73
2024/02/27 03:58:34;;;;;;;8.87;6.53;;;8.50;99.90;;;;;;5052325;28;20201;-73
2024/02/27 04:01:00;;;;;;;7.90;7.07;;;8.50;99.90;;;;;;5053000;28;20435;-73
2024/02/27 04:03:25;;;;;;;8.93;8.03;;;8.50;99.90;;;;;;5053014;28;20781;-73
2024/02/27 04:05:51;;;;;;;9.03;6.80;;;8.50;99.90;;;;;;5052948;28;20178;-73
2024/02/27 04:08:17;;;;;;;8.53;7.67;;;8.50;99.90;;;;;;5051932;28;20193;-74
2024/02/27 04:10:43;;;;;;;8.67;7.40;;;8.50;99.90;;;;;;5052824;28;20243;-74
2024/02/27 04:13:08;;;;;;;8.90;7.30;;;8.50;99.90;;;;;;5052748;28;20420;-73
2024/02/27 04:15:34;;;;;;;7.83;7.03;;;8.50;99.90;;;;;;5052735;28;20166;-73
2024/02/27 04:18:00;;;;;;;9.90;7.47;;;8.50;99.90;;;;;;5051947;28;20268;-73
2024/02/27 04:20:26;;;;;;;9.87;7.50;;;8.50;99.90;;;;;;5052686;28;20220;-73
2024/02/27 04:22:51;;;;;;;9.27;7.30;;;8.50;99.90;;;;;;5052590;28;20416;-74
2024/02/27 04:25:17;;;;;;;9.00;6.47;;;8.50;99.90;;;;;;5052598;28;20261;-73
2024/02/27 04:27:42;;;;;;;7.60;6.90;;;8.50;99.90;;;;;;5051969;28;20201;-73
2024/02/27 04:30:09;;;;;;;9.20;7.03;;;8.40;99.90;;;;;;5052315;28;20190;-74
2024/02/27 04:32:34;;;;;;;8.37;7.57;;;8.40;99.90;;;;;;5052454;28;20253;-74
2024/02/27 04:35:01;;;;;;;11.07;7.00;;;8.30;99.90;;;;;;5052435;28;20864;-74
2024/02/27 04:37:26;;;;;;;9.57;7.73;;;8.30;99.90;;;;;;5051440;28;20201;-73
2024/02/27 04:39:52;;;;;;;8.37;7.40;;;8.30;99.90;;;;;;5052517;28;20451;-74
2024/02/27 04:42:18;;;;;;;10.27;8.50;;;8.30;99.90;;;;;;5052344;28;20640;-74
2024/02/27 04:44:43;;;;;;;10.33;8.67;;;8.20;99.90;;;;;;5052200;28;20223;-74
2024/02/27 04:47:09;;;;;;;10.83;8.90;;;8.30;99.90;;;;;;5051546;28;20177;-73
2024/02/27 04:49:34;;;;;;;10.87;9.77;;;8.30;99.90;;;;;;5052111;28;20213;-74
2024/02/27 04:52:00;;;;;;;9.37;7.73;;;8.30;99.90;;;;;;5052003;28;20208;-74
2024/02/27 04:54:26;;;;;;;11.50;8.70;;;8.20;99.90;;;;;;5052093;28;20169;-74
2024/02/27 04:56:51;;;;;;;11.63;8.47;;;8.20;99.90;;;;;;5051314;28;20161;-74
2024/02/27 04:59:17;;;;;;;10.00;8.80;;;8.10;99.90;;;;;;5051849;28;20215;-74
2024/02/27 05:01:48;;;;;;;11.07;8.80;;;8.20;99.90;;;;;;5052112;28;20169;-74
2024/02/27 05:04:15;;;;;;;11.60;8.40;;;8.20;99.90;;;;;;5052157;28;20323;-74
2024/02/27 05:06:41;;;;;;;13.60;8.20;;;8.20;99.90;;;;;;5051208;28;20419;-73
2024/02/27 05:09:07;;;;;;;12.17;9.40;;;8.20;99.90;;;;;;5051862;28;20432;-73
2024/02/27 05:11:33;;;;;;;10.43;8.37;;;8.20;99.90;;;;;;5051875;28;20197;-73
2024/02/27 05:13:58;;;;;;;12.10;10.60;;;8.20;99.90;;;;;;5051760;28;20940;-74
2024/02/27 05:16:24;;;;;;;13.43;11.30;;;8.20;99.90;;;;;;5051383;28;20512;-74
2024/02/27 05:18:50;;;;;;;12.50;11.17;;;8.10;99.90;;;;;;5051633;28;20193;-74
2024/02/27 05:21:20;;;;;;;13.40;11.20;;;8.10;99.90;;;;;;5051749;28;20205;-73
2024/02/27 05:23:46;;;;;;;9.73;8.70;;;8.10;99.90;;;;;;5051858;28;20708;-73
2024/02/27 05:26:12;;;;;;;12.50;9.57;;;8.00;99.90;;;;;;5051799;28;20423;-73
2024/02/27 05:28:38;;;;;;;10.00;8.43;;;8.10;99.90;;;;;;5050998;28;20436;-73
2024/02/27 05:31:28;;;;;;;11.90;9.33;;;8.10;99.90;;;;;;5051620;28;20474;-73
2024/02/27 05:33:55;;;;;;;10.83;9.10;;;8.10;99.90;;;;;;5051672;28;20178;-74
2024/02/27 05:36:23;;;;;;;9.90;8.90;;;8.10;99.90;;;;;;5051338;28;20424;-73
2024/02/27 05:38:50;;;;;;;13.03;9.37;;;8.00;99.90;;;;;;5051370;28;20458;-74
2024/02/27 05:41:18;;;;;;;10.77;8.97;;;8.00;99.90;;;;;;5053912;28;20431;-73
2024/02/27 05:43:44;;;;;;;15.10;10.43;;;8.00;99.90;;;;;;5055505;28;21029;-73
2024/02/27 05:46:10;;;;;;;11.97;9.53;;;8.00;99.90;;;;;;5055436;28;20516;-73
2024/02/27 05:48:37;;;;;;;14.87;10.20;;;7.80;99.90;;;;;;5054737;28;20276;-73
2024/02/27 05:51:02;;;;;;;11.67;9.37;;;7.80;99.90;;;;;;5055599;28;20209;-74
2024/02/27 05:53:31;;;;;;;12.40;9.70;;;7.80;99.90;;;;;;5055420;28;20491;-74
2024/02/27 05:55:57;;;;;;;11.60;9.13;;;7.80;99.90;;;;;;5055343;28;20173;-73
2024/02/27 05:58:24;;;;;;;11.57;9.63;;;7.80;99.90;;;;;;5054415;28;20464;-73
2024/02/27 06:00:50;;;;;;;11.17;10.03;;;7.80;99.90;;;;;;5055233;28;20455;-74
2024/02/27 06:03:16;;;;;;;14.60;10.20;;;7.90;99.90;;;;;;5055740;28;20424;-73
2024/02/27 06:05:42;;;;;;;11.10;9.73;;;7.90;99.90;;;;;;5055176;28;20523;-74
2024/02/27 06:08:07;;;;;;;14.73;10.50;;;7.90;99.90;;;;;;5052649;28;20193;-73
2024/02/27 06:10:33;;;;;;;11.33;10.13;;;8.00;99.90;;;;;;5054993;28;20567;-74
2024/02/27 06:12:58;;;;;;;13.50;11.07;;;8.00;99.90;;;;;;5054997;28;20209;-73
2024/02/27 06:15:24;;;;;;;17.13;11.63;;;7.90;99.90;;;;;;5054959;28;20256;-73
2024/02/27 06:17:49;;;;;;;12.60;10.33;;;7.90;99.90;;;;;;5054117;28;20221;-73
2024/02/27 06:22:59;;;;;;;12.83;11.63;;;8.00;99.90;;;;;;5054981;28;20219;-73
2024/02/27 06:25:25;;;;;;;16.33;11.90;;;7.90;99.90;;;;;;5054916;28;20424;-73
2024/02/27 06:27:50;;;;;;;14.43;10.93;;;7.90;99.90;;;;;;5054044;28;20678;-74
2024/02/27 06:30:16;;;;;;;17.20;12.30;;;7.90;99.90;;;;;;5054810;28;20201;-74
2024/02/27 06:32:42;;;;;;;17.73;11.47;;;7.90;99.90;;;;;;5054938;28;20170;-74
2024/02/27 06:35:09;;;;;;;15.17;11.67;;;7.90;99.90;;;;;;5054722;28;20166;-73
2024/02/27 06:37:35;;;;;;;15.37;11.93;;;7.90;99.90;;;;;;5053813;28;20537;-74
2024/02/27 06:40:00;;;;;;;15.50;12.80;;;7.90;99.90;;;;;;5054557;28;20420;-73
2024/02/27 06:42:26;;;;;;;15.07;12.07;;;7.80;99.90;;;;;;5054416;28;20170;-73
2024/02/27 06:44:51;;;;;;;18.00;14.07;;;7.80;99.90;;;;;;5054499;28;20249;-73
2024/02/27 06:47:17;;;;;;;17.90;14.00;;;7.70;99.90;;;;;;5053695;28;20201;-73
2024/02/27 06:49:43;;;;;;;16.23;12.60;;;7.70;99.90;;;;;;5054280;28;20193;-73
2024/02/27 06:52:09;;;;;;;13.83;12.33;;;7.70;99.90;;;;;;5053141;28;20416;-73
2024/02/27 06:54:34;;;;;;;17.20;12.50;;;7.70;99.90;;;;;;5054263;28;20180;-73
2024/02/27 06:57:00;;;;;;;18.20;14.40;;;7.70;99.90;;;;;;5053275;28;20193;-73
2024/02/27 06:59:26;;;;;;;19.43;13.67;;;7.70;99.90;;;;;;5054121;28;20186;-74
2024/02/27 07:01:51;;;;;;;20.73;14.33;;;7.70;99.90;;;;;;5054105;28;20173;-73
2024/02/27 07:04:17;;;;;;;14.67;12.43;;;7.60;99.90;;;;;;5054185;28;20170;-73
2024/02/27 07:06:43;;;;;;;18.27;14.80;;;7.60;99.90;;;;;;5053305;28;20251;-74
2024/02/27 07:09:09;;;;;;;19.57;15.83;;;7.60;99.90;;;;;;5053704;28;20197;-73
2024/02/27 07:11:35;;;;;;;21.70;15.87;;;7.60;99.90;;;;;;5053806;28;20237;-73
2024/02/27 07:14:01;;;;;;;20.13;15.60;;;7.60;99.90;;;;;;5053891;28;20496;-73
2024/02/27 07:16:27;;;;;;;20.17;15.40;;;7.60;99.90;;;;;;5053137;28;20309;-74
2024/02/27 07:18:52;;;;;;;19.37;14.83;;;7.70;99.90;;;;;;5053905;28;20797;-74
2024/02/27 07:21:18;;;;;;;22.13;16.20;;;7.70;99.90;;;;;;5053759;28;20469;-73
2024/02/27 07:23:43;;;;;;;20.00;15.60;;;7.70;99.90;;;;;;5053731;28;20200;-73
2024/02/27 07:26:09;;;;;;;21.43;16.33;;;7.80;99.90;;;;;;5053564;28;20260;-73
2024/02/27 07:28:35;;;;;;;24.43;18.40;;;7.80;99.90;;;;;;5052782;28;20199;-73
2024/02/27 07:31:01;;;;;;;17.20;15.03;;;7.90;99.90;;;;;;5053445;28;20467;-73
2024/02/27 07:33:26;;;;;;;18.23;16.33;;;7.90;99.90;;;;;;5053596;28;20178;-73
2024/02/27 07:35:52;;;;;;;21.20;15.20;;;8.00;99.90;;;;;;5053236;28;20228;-73
2024/02/27 07:38:18;;;;;;;19.83;16.20;;;8.10;99.90;;;;;;5041857;28;20272;-73
2024/02/27 07:40:43;;;;;;;21.63;16.27;;;8.10;99.90;;;;;;5033474;28;20663;-73
2024/02/27 07:43:09;;;;;;;20.17;15.10;;;8.20;99.90;;;;;;5050792;28;20438;-73
2024/02/27 07:45:35;;;;;;;20.30;16.10;;;8.20;99.90;;;;;;5053345;28;20702;-73
2024/02/27 07:48:01;;;;;;;22.57;16.10;;;8.20;99.90;;;;;;5052500;28;20217;-74
2024/02/27 07:50:27;;;;;;;18.80;14.90;;;8.30;99.90;;;;;;5053183;28;20972;-73
2024/02/27 07:52:52;;;;;;;21.77;16.77;;;8.40;99.90;;;;;;5053296;28;20608;-73
2024/02/27 07:55:18;;;;;;;21.13;16.87;;;8.50;99.90;;;;;;5051708;28;20457;-73
2024/02/27 07:57:43;;;;;;;19.60;15.20;;;8.50;99.90;;;;;;5051147;28;20319;-74
2024/02/27 08:00:09;;;;;;;20.80;15.90;;;8.60;99.90;;;;;;5045166;28;20185;-74
2024/02/27 08:02:37;;;;;;;20.43;15.93;;;8.50;99.90;;;;;;5052536;28;20193;-74
2024/02/27 08:05:03;;;;;;;18.33;15.97;;;8.60;99.90;;;;;;5052422;28;20420;-74
2024/02/27 08:07:28;;;;;;;17.97;15.20;;;8.70;99.90;;;;;;5051421;28;20426;-73
2024/02/27 08:09:54;;;;;;;18.57;15.57;;;8.90;99.90;;;;;;5052017;28;20272;-73
2024/02/27 08:12:20;;;;;;;19.77;15.97;;;9.00;99.90;;;;;;5052364;28;20168;-72
2024/02/27 08:14:46;;;;;;;20.80;17.73;;;9.10;99.90;;;;;;5052271;28;20212;-74
2024/02/27 08:17:12;;;;;;;17.57;15.80;;;9.20;99.90;;;;;;5051684;28;20416;-73
2024/02/27 08:19:39;;;;;;;22.47;16.80;;;9.20;99.90;;;;;;5050522;28;20228;-74
2024/02/27 08:22:05;;;;;;;19.63;16.03;;;9.40;99.90;;;;;;5052583;28;20940;-74
2024/02/27 08:24:34;;;;;;;20.43;16.63;;;9.50;99.90;;;;;;5052422;28;20945;-74
2024/02/27 08:27:00;;;;;;;21.00;15.30;;;9.50;99.90;;;;;;5051647;28;20416;-73
2024/02/27 08:29:25;;;;;;;17.93;16.00;;;9.60;99.90;;;;;;5052559;28;21043;-73
2024/02/27 08:31:51;;;;;;;19.73;15.90;;;9.60;99.90;;;;;;5052448;28;20162;-73
2024/02/27 08:34:16;;;;;;;18.77;14.80;;;9.60;99.90;;;;;;5052256;28;20178;-73
2024/02/27 08:36:42;;;;;;;19.60;16.00;;;9.60;99.90;;;;;;5050297;28;20231;-73
2024/02/27 08:39:09;;;;;;;21.07;16.20;;;9.60;99.90;;;;;;5052122;28;20189;-73
2024/02/27 08:41:36;;;;;;;19.03;15.73;;;9.70;99.90;;;;;;5052337;28;20169;-74
2024/02/27 08:44:01;;;;;;;19.40;16.60;;;9.90;99.90;;;;;;5052116;28;20423;-73
2024/02/27 08:46:27;;;;;;;20.50;17.23;;;10.10;99.90;;;;;;5050961;28;20424;-73
2024/02/27 08:48:53;;;;;;;22.10;15.60;;;10.20;99.90;;;;;;5052018;28;20204;-74
2024/02/27 08:51:18;;;;;;;17.00;14.97;;;10.40;99.90;;;;;;5050762;28;20207;-74
2024/02/27 08:53:44;;;;;;;16.40;14.30;;;10.40;99.90;;;;;;5051950;28;20419;-74
2024/02/27 08:56:09;;;;;;;21.20;16.93;;;10.30;99.90;;;;;;5051835;28;20170;-73
2024/02/27 08:58:36;;;;;;;18.27;15.70;;;10.30;99.90;;;;;;5051240;28;20205;-74
2024/02/27 09:01:02;;;;;;;19.23;16.63;;;10.20;99.90;;;;;;5051973;28;20180;-73
2024/02/27 09:03:28;;;;;;;22.03;15.60;;;10.10;99.90;;;;;;5051979;28;20926;-73
2024/02/27 09:05:54;;;;;;;19.93;16.07;;;10.20;99.90;;;;;;5051953;28;20971;-74
2024/02/27 09:08:19;;;;;;;21.43;16.03;;;10.30;99.90;;;;;;5050897;28;20466;-73
2024/02/27 09:10:45;;;;;;;22.93;17.27;;;10.30;99.90;;;;;;5051805;28;20670;-74
2024/02/27 09:13:11;;;;;;;19.07;16.20;;;10.40;99.90;;;;;;5051894;28;20174;-74
2024/02/27 09:15:36;;;;;;;18.43;16.30;;;10.30;99.90;;;;;;5051359;28;20443;-75
2024/02/27 09:18:03;;;;;;;17.93;16.00;;;10.30;99.90;;;;;;5050978;28;20196;-74
2024/02/27 09:20:31;;;;;;;20.97;15.80;;;10.30;99.90;;;;;;5051483;28;20185;-74
2024/02/27 09:22:57;;;;;;;21.07;16.07;;;10.20;99.90;;;;;;5050260;28;20744;-74
2024/02/27 09:25:22;;;;;;;20.10;16.93;;;10.00;99.90;;;;;;5051774;28;20453;-73
2024/02/27 09:27:48;;;;;;;21.23;16.07;;;10.00;99.90;;;;;;5051007;28;20439;-74
2024/02/27 09:30:14;;;;;;;20.67;16.80;;;9.80;99.90;;;;;;5051502;28;20557;-74
2024/02/27 09:32:39;;;;;;;19.93;17.37;;;9.80;99.90;;;;;;5051649;28;20174;-74
2024/02/27 09:35:07;;;;;;;22.20;18.57;;;9.80;99.90;;;;;;5051571;28;20170;-74
2024/02/27 09:37:33;;;;;;;20.77;18.10;;;9.70;99.90;;;;;;5050724;28;20166;-74
2024/02/27 09:39:58;;;;;;;24.13;17.20;;;9.50;99.90;;;;;;5050307;28;20825;-73
2024/02/27 09:42:24;;;;;;;18.70;15.43;;;9.50;99.90;;;;;;5051533;28;20200;-74
2024/02/27 09:44:54;;;;;;;19.70;17.13;;;9.50;99.90;;;;;;5051504;28;20569;-74
2024/02/27 09:47:21;;;;;;;23.80;17.83;;;9.60;99.90;;;;;;5050875;28;20196;-73
2024/02/27 09:49:48;;;;;;;24.23;19.00;;;9.70;99.90;;;;;;5051290;28;20459;-74
2024/02/27 09:52:19;;;;;;;19.80;17.00;;;9.80;99.90;;;;;;5051489;28;20470;-74
2024/02/27 09:54:45;;;;;;;23.83;17.60;;;9.80;99.90;;;;;;5051546;28;20617;-73
2024/02/27 09:57:10;;;;;;;21.93;18.93;;;9.70;99.90;;;;;;5050738;28;20845;-75
2024/02/27 09:59:38;;;;;;;18.53;15.67;;;9.80;99.90;;;;;;5051536;28;20440;-74
2024/02/27 10:02:08;;;;;;;19.77;15.87;;;9.90;99.90;;;;;;5051469;28;20511;-73
2024/02/27 10:04:36;;;;;;;18.33;15.83;;;10.00;99.90;;;;;;5045365;28;20467;-75
2024/02/27 10:07:05;;;;;;;19.77;17.10;;;10.00;99.90;;;;;;5030102;28;20421;-74
2024/02/27 10:09:35;;;;;;;18.83;15.73;;;10.20;99.90;;;;;;5031039;28;20432;-73
2024/02/27 10:12:04;;;;;;;18.67;16.77;;;10.40;99.90;;;;;;5031341;28;20448;-74
2024/02/27 10:14:32;;;;;;;20.43;16.50;;;10.40;99.90;;;;;;5030955;28;20421;-74
2024/02/27 10:16:57;;;;;;;20.70;17.87;;;10.30;99.90;;;;;;5030513;28;20432;-73
2024/02/27 10:19:29;;;;;;;20.87;16.93;;;10.20;99.90;;;;;;5031480;28;20946;-73
2024/02/27 10:21:55;;;;;;;20.20;15.40;;;10.30;99.90;;;;;;5031319;28;20224;-73
2024/02/27 10:24:23;;;;;;;19.13;16.40;;;10.30;99.90;;;;;;5031138;28;20450;-74
2024/02/27 10:26:53;;;;;;;20.67;17.50;;;10.30;99.90;;;;;;5031873;28;20781;-73
2024/02/27 10:29:27;;;;;;;18.60;15.80;;;10.20;99.90;;;;;;5034380;28;20503;-73
2024/02/27 10:31:53;;;;;;;24.43;18.43;;;10.00;99.90;;;;;;5034614;28;20422;-74
2024/02/27 10:34:23;;;;;;;24.20;19.53;;;9.90;99.90;;;;;;5034535;28;20413;-73
2024/02/27 10:37:03;;;;;;;24.40;19.37;;;9.90;99.90;;;;;;5034222;28;20170;-72
2024/02/27 10:39:31;;;;;;;21.73;16.10;;;9.90;99.90;;;;;;5034447;28;20917;-73
2024/02/27 10:41:57;;;;;;;19.70;17.60;;;10.00;99.90;;;;;;5034326;28;20417;-73
2024/02/27 10:44:25;;;;;;;21.23;17.33;;;10.10;99.90;;;;;;5034510;28;20413;-72
2024/02/27 10:46:50;;;;;;;20.60;17.43;;;10.20;99.90;;;;;;5034002;28;20780;-72
2024/02/27 10:49:17;;;;;;;20.90;16.47;;;10.30;99.90;;;;;;5033797;28;20435;-72
2024/02/27 10:51:44;;;;;;;17.83;15.80;;;10.20;99.90;;;;;;5034097;28;20197;-72
2024/02/27 10:54:11;;;;;;;19.40;16.50;;;10.30;99.90;;;;;;5033941;28;20977;-73
2024/02/27 10:56:37;;;;;;;19.73;16.40;;;10.30;99.90;;;;;;5032841;28;20432;-72
2024/02/27 10:59:04;;;;;;;22.57;17.90;;;10.10;99.90;;;;;;5032643;28;20456;-72
2024/02/27 11:01:32;;;;;;;21.77;18.47;;;10.10;99.90;;;;;;5033748;28;20249;-72
2024/02/27 11:04:03;;;;;;;21.40;18.90;;;10.30;99.90;;;;;;5032608;28;20794;-72
2024/02/27 11:06:29;;;;;;;28.40;23.07;;;10.50;99.90;;;;;;5033314;28;20427;-72
2024/02/27 11:09:02;;;;;;;21.50;19.23;;;10.70;99.90;;;;;;5033727;28;20452;-72
2024/02/27 11:11:29;;;;;;;21.60;19.30;;;10.90;99.90;;;;;;5033694;28;20445;-72
2024/02/27 11:13:58;;;;;;;25.90;21.50;;;11.00;99.90;;;;;;5033945;28;20432;-72
2024/02/27 11:16:28;;;;;;;28.43;18.83;;;11.10;99.90;;;;;;5033396;28;20707;-72
2024/02/27 11:19:04;;;;;;;21.67;18.60;;;11.10;99.90;;;;;;5033530;28;20448;-72
2024/02/27 11:21:30;;;;;;;22.23;17.50;;;11.20;99.90;;;;;;5033728;28;20492;-67
2024/02/27 11:23:56;;;;;;;23.00;17.73;;;11.10;99.90;;;;;;5033449;28;20424;-67
2024/02/27 11:26:22;;;;;;;20.30;18.10;;;11.00;99.90;;;;;;5033264;28;20421;-66
2024/02/27 11:28:49;;;;;;;20.70;18.50;;;11.30;99.90;;;;;;5043228;28;20458;-70
2024/02/27 11:31:18;;;;;;;21.37;17.20;;;11.70;99.90;;;;;;5053175;28;20242;-70
2024/02/27 11:33:53;;;;;;;23.43;18.10;;;12.10;99.90;;;;;;5051867;28;20892;-69
2024/02/27 11:36:18;;;;;;;21.93;19.63;;;12.50;99.90;;;;;;5053039;28;20464;-71
2024/02/27 11:38:46;;;;;;;20.73;18.10;;;12.90;99.90;;;;;;5052365;28;20519;-70
2024/02/27 11:41:18;;;;;;;23.93;19.50;;;13.40;99.90;;;;;;5053560;28;20212;-70
2024/02/27 11:43:48;;;;;;;20.00;17.90;;;14.10;99.90;;;;;;5053485;28;20442;-71
2024/02/27 11:46:29;;;;;;;19.87;17.87;;;15.00;99.90;;;;;;5052818;28;20424;-70
2024/02/27 11:48:55;;;;;;;21.67;18.83;;;15.70;99.90;;;;;;5053109;28;20435;-70
2024/02/27 11:51:29;;;;;;;20.13;17.53;;;15.60;99.90;;;;;;5052886;28;20456;-69
2024/02/27 11:53:56;;;;;;;24.33;18.30;;;15.10;99.90;;;;;;5053167;28;20428;-71
2024/02/27 11:56:22;;;;;;;19.77;17.70;;;14.70;99.90;;;;;;5051595;28;21025;-70
2024/02/27 11:58:49;;;;;;;23.50;17.80;;;14.50;99.90;;;;;;5052593;28;20667;-69
2024/02/27 12:01:16;;;;;;;21.63;19.40;;;14.30;99.90;;;;;;5053481;28;20477;-70
2024/02/27 12:03:45;;;;;;;23.20;20.80;;;13.70;99.90;;;;;;5053095;28;20420;-72
2024/02/27 12:06:12;;;;;;;25.13;22.60;;;13.00;99.90;;;;;;5051132;28;20431;-72
2024/02/27 12:08:48;;;;;;;25.23;20.90;;;12.50;99.90;;;;;;5037466;28;20507;-71
2024/02/27 12:11:19;;;;;;;28.57;21.07;;;11.90;99.90;;;;;;5032868;28;20456;-71
2024/02/27 12:13:48;;;;;;;24.30;21.80;;;11.60;99.90;;;;;;5032828;28;20862;-71
2024/02/27 12:16:27;;;;;;;23.60;21.07;;;11.30;99.90;;;;;;5032520;28;20417;-72
2024/02/27 12:18:54;;;;;;;23.50;19.87;;;11.10;99.90;;;;;;5032709;28;20436;-72
2024/02/27 12:21:27;;;;;;;25.47;22.03;;;11.20;99.90;;;;;;5032704;28;20428;-71
2024/02/27 12:24:14;;;;;;;27.60;20.10;;;11.20;99.90;;;;;;5032600;28;20425;-71
2024/02/27 12:26:41;;;;;;;25.40;19.50;;;11.30;99.90;;;;;;5032293;28;21009;-71
2024/02/27 12:29:09;;;;;;;26.23;20.40;;;11.30;99.90;;;;;;5032561;28;20451;-71
2024/02/27 12:31:34;;;;;;;24.10;21.20;;;11.30;99.90;;;;;;5032525;28;20496;-72
2024/02/27 12:34:05;;;;;;;26.90;22.13;;;11.30;99.90;;;;;;5032378;28;20428;-71
2024/02/27 12:36:31;;;;;;;25.53;20.60;;;11.20;99.90;;;;;;5032043;28;20179;-71
2024/02/27 12:38:57;;;;;;;25.50;21.90;;;11.10;99.90;;;;;;5032655;28;20445;-72
2024/02/27 12:41:23;;;;;;;26.07;23.37;;;11.10;99.90;;;;;;5032356;28;20248;-71